sensor_id;sensor_type;location;lat;lon;timestamp;pressure;altitude;pressure_sealevel;temperature;humidity
10006;BME280;5042;42.626;23.382;2023-08-21T00:01:40;94748.78;;;23.22;100.00
10006;BME280;5042;42.626;23.382;2023-08-21T00:04:06;94745.06;;;23.18;100.00
10006;BME280;5042;42.626;23.382;2023-08-21T00:06:34;94746.44;;;22.94;100.00
10006;BME280;5042;42.626;23.382;2023-08-21T00:09:01;94740.69;;;22.70;100.00
10006;BME280;5042;42.626;23.382;2023-08-21T00:11:28;94729.06;;;22.54;100.00
10006;BME280;5042;42.626;23.382;2023-08-21T00:13:55;94742.41;;;22.54;100.00
10006;BME280;5042;42.626;23.382;2023-08-21T00:16:22;94743.94;;;22.44;100.00
10006;BME280;5042;42.626;23.382;2023-08-21T00:18:48;94742.41;;;22.54;100.00
10006;BME280;5042;42.626;23.382;2023-08-21T00:21:15;94743.50;;;22.53;100.00
10006;BME280;5042;42.626;23.382;2023-08-21T00:23:43;94732.50;;;22.49;100.00
10006;BME280;5042;42.626;23.382;2023-08-21T00:26:10;94742.38;;;22.49;100.00
10006;BME280;5042;42.626;23.382;2023-08-21T00:28:36;94724.16;;;22.40;100.00
10006;BME280;5042;42.626;23.382;2023-08-21T00:31:03;94723.00;;;22.31;100.00
10006;BME280;5042;42.626;23.382;2023-08-21T00:33:30;94725.66;;;22.26;100.00
10006;BME280;5042;42.626;23.382;2023-08-21T00:35:57;94706.25;;;22.14;100.00
10006;BME280;5042;42.626;23.382;2023-08-21T00:38:24;94734.75;;;22.30;100.00
10006;BME280;5042;42.626;23.382;2023-08-21T00:40:53;94738.81;;;22.11;100.00
10006;BME280;5042;42.626;23.382;2023-08-21T00:43:20;94736.59;;;22.02;100.00
10006;BME280;5042;42.626;23.382;2023-08-21T00:45:48;94744.16;;;22.11;100.00
10006;BME280;5042;42.626;23.382;2023-08-21T00:48:16;94748.69;;;22.10;100.00
10006;BME280;5042;42.626;23.382;2023-08-21T00:50:44;94743.34;;;22.10;100.00
10006;BME280;5042;42.626;23.382;2023-08-21T00:53:11;94744.84;;;22.01;100.00
10006;BME280;5042;42.626;23.382;2023-08-21T00:55:38;94675.34;;;21.64;100.00
10006;BME280;5042;42.626;23.382;2023-08-21T00:58:08;94751.59;;;22.09;100.00
10006;BME280;5042;42.626;23.382;2023-08-21T01:00:36;94756.38;;;22.07;100.00
10006;BME280;5042;42.626;23.382;2023-08-21T01:03:02;94752.66;;;22.08;100.00
10006;BME280;5042;42.626;23.382;2023-08-21T01:05:29;94755.91;;;22.10;100.00
10006;BME280;5042;42.626;23.382;2023-08-21T01:08:00;94760.69;;;22.08;100.00
10006;BME280;5042;42.626;23.382;2023-08-21T01:10:39;94754.88;;;21.89;100.00
10006;BME280;5042;42.626;23.382;2023-08-21T01:13:13;94752.50;;;21.92;100.00
10006;BME280;5042;42.626;23.382;2023-08-21T01:15:45;94743.69;;;21.92;100.00
10006;BME280;5042;42.626;23.382;2023-08-21T01:18:13;94757.22;;;21.85;100.00
10006;BME280;5042;42.626;23.382;2023-08-21T01:20:40;94746.94;;;21.72;100.00
10006;BME280;5042;42.626;23.382;2023-08-21T01:23:07;94753.78;;;21.63;100.00
10006;BME280;5042;42.626;23.382;2023-08-21T01:25:35;94752.72;;;21.64;100.00
10006;BME280;5042;42.626;23.382;2023-08-21T01:28:03;94748.34;;;21.52;100.00
10006;BME280;5042;42.626;23.382;2023-08-21T01:30:31;94749.31;;;21.46;100.00
10006;BME280;5042;42.626;23.382;2023-08-21T01:33:04;94742.06;;;21.25;100.00
10006;BME280;5042;42.626;23.382;2023-08-21T01:35:33;94734.50;;;20.78;100.00
10006;BME280;5042;42.626;23.382;2023-08-21T01:38:02;94749.44;;;20.79;100.00
10006;BME280;5042;42.626;23.382;2023-08-21T01:40:29;94747.66;;;20.84;100.00
10006;BME280;5042;42.626;23.382;2023-08-21T01:42:57;94745.22;;;20.83;100.00
10006;BME280;5042;42.626;23.382;2023-08-21T01:45:24;94751.44;;;20.88;100.00
10006;BME280;5042;42.626;23.382;2023-08-21T01:47:50;94750.25;;;20.79;100.00
10006;BME280;5042;42.626;23.382;2023-08-21T01:50:18;94748.31;;;20.74;100.00
10006;BME280;5042;42.626;23.382;2023-08-21T01:52:45;94747.22;;;20.92;100.00
10006;BME280;5042;42.626;23.382;2023-08-21T01:55:12;94748.59;;;20.95;100.00
10006;BME280;5042;42.626;23.382;2023-08-21T01:57:39;94755.69;;;21.06;100.00
10006;BME280;5042;42.626;23.382;2023-08-21T02:00:10;94744.53;;;21.09;100.00
10006;BME280;5042;42.626;23.382;2023-08-21T02:02:38;94747.50;;;20.91;100.00
10006;BME280;5042;42.626;23.382;2023-08-21T02:05:05;94745.06;;;20.89;100.00
10006;BME280;5042;42.626;23.382;2023-08-21T02:07:32;94733.75;;;20.82;100.00
10006;BME280;5042;42.626;23.382;2023-08-21T02:09:59;94743.63;;;20.65;100.00
10006;BME280;5042;42.626;23.382;2023-08-21T02:12:26;94741.03;;;20.53;100.00
10006;BME280;5042;42.626;23.382;2023-08-21T02:14:52;94746.53;;;20.63;100.00
10006;BME280;5042;42.626;23.382;2023-08-21T02:17:21;94743.44;;;20.71;100.00
10006;BME280;5042;42.626;23.382;2023-08-21T02:19:47;94745.56;;;20.69;100.00
10006;BME280;5042;42.626;23.382;2023-08-21T02:22:14;94744.75;;;20.69;100.00
10006;BME280;5042;42.626;23.382;2023-08-21T02:24:40;94732.47;;;20.68;100.00
10006;BME280;5042;42.626;23.382;2023-08-21T02:27:07;94737.47;;;20.64;100.00
10006;BME280;5042;42.626;23.382;2023-08-21T02:29:34;94734.56;;;20.66;100.00
10006;BME280;5042;42.626;23.382;2023-08-21T02:32:01;94735.38;;;20.83;100.00
10006;BME280;5042;42.626;23.382;2023-08-21T02:34:29;94738.34;;;20.87;100.00
10006;BME280;5042;42.626;23.382;2023-08-21T02:36:55;94737.94;;;20.95;100.00
10006;BME280;5042;42.626;23.382;2023-08-21T02:39:23;94738.03;;;21.00;100.00
10006;BME280;5042;42.626;23.382;2023-08-21T02:41:50;94739.00;;;20.94;100.00
10006;BME280;5042;42.626;23.382;2023-08-21T02:44:17;94737.19;;;21.00;100.00
10006;BME280;5042;42.626;23.382;2023-08-21T02:46:43;94736.25;;;20.89;100.00
10006;BME280;5042;42.626;23.382;2023-08-21T02:49:10;94739.44;;;20.86;100.00
10006;BME280;5042;42.626;23.382;2023-08-21T02:51:38;94746.44;;;20.75;100.00
10006;BME280;5042;42.626;23.382;2023-08-21T02:54:05;94742.16;;;20.57;100.00
10006;BME280;5042;42.626;23.382;2023-08-21T02:56:32;94742.06;;;20.52;100.00
10006;BME280;5042;42.626;23.382;2023-08-21T02:58:58;94748.44;;;20.34;100.00
10006;BME280;5042;42.626;23.382;2023-08-21T03:01:25;94745.84;;;20.22;100.00
10006;BME280;5042;42.626;23.382;2023-08-21T03:03:52;94743.31;;;19.99;100.00
10006;BME280;5042;42.626;23.382;2023-08-21T03:06:18;94747.63;;;19.88;100.00
10006;BME280;5042;42.626;23.382;2023-08-21T03:08:47;94743.50;;;19.80;100.00
10006;BME280;5042;42.626;23.382;2023-08-21T03:11:14;94742.69;;;19.80;100.00
10006;BME280;5042;42.626;23.382;2023-08-21T03:13:40;94752.53;;;19.79;100.00
10006;BME280;5042;42.626;23.382;2023-08-21T03:16:07;94753.69;;;19.72;100.00
10006;BME280;5042;42.626;23.382;2023-08-21T03:18:53;94756.13;;;19.73;100.00
10006;BME280;5042;42.626;23.382;2023-08-21T03:21:20;94754.44;;;19.55;100.00
10006;BME280;5042;42.626;23.382;2023-08-21T03:23:50;94755.88;;;19.34;100.00
10006;BME280;5042;42.626;23.382;2023-08-21T03:26:17;94754.34;;;19.26;100.00
10006;BME280;5042;42.626;23.382;2023-08-21T03:28:44;94766.16;;;19.31;100.00
10006;BME280;5042;42.626;23.382;2023-08-21T03:31:10;94763.16;;;19.27;100.00
10006;BME280;5042;42.626;23.382;2023-08-21T03:33:37;94764.66;;;19.23;100.00
10006;BME280;5042;42.626;23.382;2023-08-21T03:36:04;94762.09;;;19.28;100.00
10006;BME280;5042;42.626;23.382;2023-08-21T03:38:31;94760.03;;;19.30;100.00
10006;BME280;5042;42.626;23.382;2023-08-21T03:40:59;94714.66;;;19.08;100.00
10006;BME280;5042;42.626;23.382;2023-08-21T03:43:26;94758.63;;;19.39;100.00
10006;BME280;5042;42.626;23.382;2023-08-21T03:45:52;94765.53;;;19.40;100.00
10006;BME280;5042;42.626;23.382;2023-08-21T03:48:19;94759.91;;;19.37;100.00
10006;BME280;5042;42.626;23.382;2023-08-21T03:50:46;94762.53;;;19.48;100.00
10006;BME280;5042;42.626;23.382;2023-08-21T03:53:12;94760.09;;;19.47;100.00
10006;BME280;5042;42.626;23.382;2023-08-21T03:55:39;94761.56;;;19.55;100.00
10006;BME280;5042;42.626;23.382;2023-08-21T03:58:07;94763.53;;;19.59;100.00
10006;BME280;5042;42.626;23.382;2023-08-21T04:00:34;94752.00;;;19.54;100.00
10006;BME280;5042;42.626;23.382;2023-08-21T04:03:00;94760.44;;;19.51;100.00
10006;BME280;5042;42.626;23.382;2023-08-21T04:05:27;94767.56;;;19.62;100.00
10006;BME280;5042;42.626;23.382;2023-08-21T04:07:54;94768.50;;;19.79;100.00
10006;BME280;5042;42.626;23.382;2023-08-21T04:10:20;94770.44;;;19.84;100.00
10006;BME280;5042;42.626;23.382;2023-08-21T04:12:47;94771.72;;;19.81;100.00
10006;BME280;5042;42.626;23.382;2023-08-21T04:15:15;94763.22;;;19.96;100.00
10006;BME280;5042;42.626;23.382;2023-08-21T04:17:42;94773.72;;;20.03;100.00
10006;BME280;5042;42.626;23.382;2023-08-21T04:20:09;94776.63;;;20.18;100.00
10006;BME280;5042;42.626;23.382;2023-08-21T04:22:36;94774.41;;;20.27;100.00
10006;BME280;5042;42.626;23.382;2023-08-21T04:25:03;94769.59;;;20.41;100.00
10006;BME280;5042;42.626;23.382;2023-08-21T04:27:29;94771.50;;;20.45;100.00
10006;BME280;5042;42.626;23.382;2023-08-21T04:29:56;94777.56;;;20.41;100.00
10006;BME280;5042;42.626;23.382;2023-08-21T04:32:24;94714.84;;;20.16;100.00
10006;BME280;5042;42.626;23.382;2023-08-21T04:34:51;94780.09;;;20.64;100.00
10006;BME280;5042;42.626;23.382;2023-08-21T04:37:17;94785.09;;;20.94;100.00
10006;BME280;5042;42.626;23.382;2023-08-21T04:39:44;94782.34;;;21.06;100.00
10006;BME280;5042;42.626;23.382;2023-08-21T04:42:11;94775.47;;;21.10;100.00
10006;BME280;5042;42.626;23.382;2023-08-21T04:44:38;94778.72;;;21.12;100.00
10006;BME280;5042;42.626;23.382;2023-08-21T04:47:19;94784.06;;;21.34;100.00
10006;BME280;5042;42.626;23.382;2023-08-21T04:49:48;94781.50;;;21.62;100.00
10006;BME280;5042;42.626;23.382;2023-08-21T04:52:14;94789.13;;;21.75;100.00
10006;BME280;5042;42.626;23.382;2023-08-21T04:54:41;94789.56;;;21.89;100.00
10006;BME280;5042;42.626;23.382;2023-08-21T04:57:08;94792.16;;;22.06;100.00
10006;BME280;5042;42.626;23.382;2023-08-21T04:59:34;94774.31;;;22.33;100.00
10006;BME280;5042;42.626;23.382;2023-08-21T05:02:01;94796.91;;;22.85;100.00
10006;BME280;5042;42.626;23.382;2023-08-21T05:04:28;94769.53;;;23.00;100.00
10006;BME280;5042;42.626;23.382;2023-08-21T05:06:56;94805.22;;;23.68;100.00
10006;BME280;5042;42.626;23.382;2023-08-21T05:09:23;94807.59;;;24.23;100.00
10006;BME280;5042;42.626;23.382;2023-08-21T05:11:49;94811.88;;;24.24;100.00
10006;BME280;5042;42.626;23.382;2023-08-21T05:14:16;94818.94;;;24.61;100.00
10006;BME280;5042;42.626;23.382;2023-08-21T05:16:44;94820.03;;;24.80;100.00
10006;BME280;5042;42.626;23.382;2023-08-21T05:19:11;94812.25;;;25.09;100.00
10006;BME280;5042;42.626;23.382;2023-08-21T05:21:38;94827.00;;;25.22;100.00
10006;BME280;5042;42.626;23.382;2023-08-21T05:24:06;94823.72;;;25.66;100.00
10006;BME280;5042;42.626;23.382;2023-08-21T05:26:34;94828.28;;;26.36;95.95
10006;BME280;5042;42.626;23.382;2023-08-21T05:29:01;94827.03;;;26.68;93.98
10006;BME280;5042;42.626;23.382;2023-08-21T05:31:28;94822.72;;;26.67;92.60
10006;BME280;5042;42.626;23.382;2023-08-21T05:33:54;94823.78;;;26.71;94.96
10006;BME280;5042;42.626;23.382;2023-08-21T05:36:21;94817.28;;;27.11;93.97
10006;BME280;5042;42.626;23.382;2023-08-21T05:38:48;94823.13;;;27.77;89.73
10006;BME280;5042;42.626;23.382;2023-08-21T05:41:17;94827.56;;;27.91;86.34
10006;BME280;5042;42.626;23.382;2023-08-21T05:43:44;94827.50;;;27.97;84.38
10006;BME280;5042;42.626;23.382;2023-08-21T05:46:12;94826.38;;;28.03;84.93
10006;BME280;5042;42.626;23.382;2023-08-21T05:48:39;94823.16;;;28.63;90.30
10006;BME280;5042;42.626;23.382;2023-08-21T05:51:06;94826.84;;;29.24;84.09
10006;BME280;5042;42.626;23.382;2023-08-21T05:53:32;94821.78;;;29.64;77.39
10006;BME280;5042;42.626;23.382;2023-08-21T05:55:59;94828.00;;;30.47;72.65
10006;BME280;5042;42.626;23.382;2023-08-21T05:58:27;94827.03;;;30.65;68.63
10006;BME280;5042;42.626;23.382;2023-08-21T06:00:56;94824.78;;;30.81;73.03
10006;BME280;5042;42.626;23.382;2023-08-21T06:03:23;94839.72;;;31.15;67.80
10006;BME280;5042;42.626;23.382;2023-08-21T06:05:50;94836.84;;;31.65;72.01
10006;BME280;5042;42.626;23.382;2023-08-21T06:08:17;94835.13;;;31.69;65.59
10006;BME280;5042;42.626;23.382;2023-08-21T06:10:43;94836.28;;;31.46;62.57
10006;BME280;5042;42.626;23.382;2023-08-21T06:13:10;94832.06;;;31.62;61.09
10006;BME280;5042;42.626;23.382;2023-08-21T06:15:38;94837.75;;;31.52;61.98
10006;BME280;5042;42.626;23.382;2023-08-21T06:18:05;94842.25;;;31.12;61.69
10006;BME280;5042;42.626;23.382;2023-08-21T06:20:31;94843.53;;;31.14;63.85
10006;BME280;5042;42.626;23.382;2023-08-21T06:22:58;94848.69;;;31.24;63.69
10006;BME280;5042;42.626;23.382;2023-08-21T06:25:25;94843.06;;;31.12;60.48
10006;BME280;5042;42.626;23.382;2023-08-21T06:27:51;94841.19;;;31.21;60.72
10006;BME280;5042;42.626;23.382;2023-08-21T06:30:18;94839.81;;;31.46;58.64
10006;BME280;5042;42.626;23.382;2023-08-21T06:32:46;94844.22;;;31.74;60.19
10006;BME280;5042;42.626;23.382;2023-08-21T06:35:14;94849.34;;;32.15;62.63
10006;BME280;5042;42.626;23.382;2023-08-21T06:37:40;94857.41;;;32.38;60.01
10006;BME280;5042;42.626;23.382;2023-08-21T06:40:08;94852.84;;;32.73;54.15
10006;BME280;5042;42.626;23.382;2023-08-21T06:42:35;94853.97;;;32.98;53.30
10006;BME280;5042;42.626;23.382;2023-08-21T06:45:03;94862.31;;;33.10;54.12
10006;BME280;5042;42.626;23.382;2023-08-21T06:47:30;94852.56;;;33.09;55.16
10006;BME280;5042;42.626;23.382;2023-08-21T06:49:58;94852.06;;;33.07;52.62
10006;BME280;5042;42.626;23.382;2023-08-21T06:52:25;94858.13;;;32.87;51.92
10006;BME280;5042;42.626;23.382;2023-08-21T06:54:52;94858.78;;;33.01;51.01
10006;BME280;5042;42.626;23.382;2023-08-21T06:57:19;94863.13;;;33.11;49.89
10006;BME280;5042;42.626;23.382;2023-08-21T06:59:45;94858.16;;;33.13;50.98
10006;BME280;5042;42.626;23.382;2023-08-21T07:02:12;94861.34;;;33.41;49.68
10006;BME280;5042;42.626;23.382;2023-08-21T07:04:39;94856.19;;;33.66;51.55
10006;BME280;5042;42.626;23.382;2023-08-21T07:07:07;94863.56;;;33.56;48.15
10006;BME280;5042;42.626;23.382;2023-08-21T07:09:33;94857.81;;;33.58;56.18
10006;BME280;5042;42.626;23.382;2023-08-21T07:12:00;94865.25;;;33.78;48.92
10006;BME280;5042;42.626;23.382;2023-08-21T07:14:27;94859.69;;;33.57;51.44
10006;BME280;5042;42.626;23.382;2023-08-21T07:16:54;94862.44;;;33.49;50.99
10006;BME280;5042;42.626;23.382;2023-08-21T07:19:21;94863.00;;;33.81;48.47
10006;BME280;5042;42.626;23.382;2023-08-21T07:21:48;94863.00;;;33.81;49.81
10006;BME280;5042;42.626;23.382;2023-08-21T07:24:16;94856.19;;;34.04;49.17
10006;BME280;5042;42.626;23.382;2023-08-21T07:26:42;94851.50;;;34.22;47.15
10006;BME280;5042;42.626;23.382;2023-08-21T07:29:09;94854.34;;;34.26;45.97
10006;BME280;5042;42.626;23.382;2023-08-21T07:31:36;94854.66;;;34.24;51.43
10006;BME280;5042;42.626;23.382;2023-08-21T07:34:02;94855.22;;;34.17;48.19
10006;BME280;5042;42.626;23.382;2023-08-21T07:36:31;94836.38;;;34.33;47.40
10006;BME280;5042;42.626;23.382;2023-08-21T07:38:58;94850.44;;;34.35;51.05
10006;BME280;5042;42.626;23.382;2023-08-21T07:41:26;94855.66;;;34.49;46.87
10006;BME280;5042;42.626;23.382;2023-08-21T07:43:52;94853.13;;;33.67;47.93
10006;BME280;5042;42.626;23.382;2023-08-21T07:46:19;94849.94;;;33.48;54.26
10006;BME280;5042;42.626;23.382;2023-08-21T07:48:46;94852.19;;;33.63;51.91
10006;BME280;5042;42.626;23.382;2023-08-21T07:51:12;94840.44;;;33.80;51.83
10006;BME280;5042;42.626;23.382;2023-08-21T07:53:39;94856.38;;;33.99;47.66
10006;BME280;5042;42.626;23.382;2023-08-21T07:56:06;94846.66;;;33.89;47.60
10006;BME280;5042;42.626;23.382;2023-08-21T07:58:34;94843.66;;;34.20;50.95
10006;BME280;5042;42.626;23.382;2023-08-21T08:01:01;94850.75;;;34.72;44.35
10006;BME280;5042;42.626;23.382;2023-08-21T08:03:30;94821.50;;;34.31;46.45
10006;BME280;5042;42.626;23.382;2023-08-21T08:05:57;94847.34;;;34.96;46.04
10006;BME280;5042;42.626;23.382;2023-08-21T08:08:23;94843.63;;;35.22;48.63
10006;BME280;5042;42.626;23.382;2023-08-21T08:10:50;94849.19;;;35.25;42.71
10006;BME280;5042;42.626;23.382;2023-08-21T08:13:17;94846.00;;;35.23;42.17
10006;BME280;5042;42.626;23.382;2023-08-21T08:15:45;94842.41;;;35.32;44.08
10006;BME280;5042;42.626;23.382;2023-08-21T08:18:12;94837.25;;;35.51;43.91
10006;BME280;5042;42.626;23.382;2023-08-21T08:20:39;94838.19;;;35.22;42.66
10006;BME280;5042;42.626;23.382;2023-08-21T08:23:06;94833.69;;;35.38;45.80
10006;BME280;5042;42.626;23.382;2023-08-21T08:25:33;94833.66;;;34.33;43.80
10006;BME280;5042;42.626;23.382;2023-08-21T08:27:59;94831.34;;;34.14;41.77
10006;BME280;5042;42.626;23.382;2023-08-21T08:30:26;94824.41;;;34.26;45.44
10006;BME280;5042;42.626;23.382;2023-08-21T08:32:54;94830.41;;;34.40;44.33
10006;BME280;5042;42.626;23.382;2023-08-21T08:35:21;94830.63;;;33.96;42.16
10006;BME280;5042;42.626;23.382;2023-08-21T08:37:48;94825.69;;;33.25;43.18
10006;BME280;5042;42.626;23.382;2023-08-21T08:40:14;94823.16;;;33.20;43.87
10006;BME280;5042;42.626;23.382;2023-08-21T08:42:41;94820.59;;;33.24;44.47
10006;BME280;5042;42.626;23.382;2023-08-21T08:45:08;94817.91;;;33.15;44.23
10006;BME280;5042;42.626;23.382;2023-08-21T08:47:40;94805.59;;;33.09;44.09
10006;BME280;5042;42.626;23.382;2023-08-21T08:50:09;94820.19;;;33.60;45.88
10006;BME280;5042;42.626;23.382;2023-08-21T08:52:37;94808.78;;;33.84;47.44
10006;BME280;5042;42.626;23.382;2023-08-21T08:55:05;94808.22;;;33.99;46.73
10006;BME280;5042;42.626;23.382;2023-08-21T08:57:32;94809.44;;;34.40;45.26
10006;BME280;5042;42.626;23.382;2023-08-21T08:59:59;94808.38;;;34.54;46.68
10006;BME280;5042;42.626;23.382;2023-08-21T09:02:26;94810.53;;;34.48;45.43
10006;BME280;5042;42.626;23.382;2023-08-21T09:04:53;94806.53;;;34.46;44.44
10006;BME280;5042;42.626;23.382;2023-08-21T09:07:21;94808.53;;;34.57;40.41
10006;BME280;5042;42.626;23.382;2023-08-21T09:09:48;94811.78;;;33.27;39.72
10006;BME280;5042;42.626;23.382;2023-08-21T09:12:16;94796.31;;;32.58;41.57
10006;BME280;5042;42.626;23.382;2023-08-21T09:14:44;94806.81;;;32.42;43.40
10006;BME280;5042;42.626;23.382;2023-08-21T09:17:11;94808.63;;;32.72;43.34
10006;BME280;5042;42.626;23.382;2023-08-21T09:19:38;94804.47;;;32.92;46.51
10006;BME280;5042;42.626;23.382;2023-08-21T09:22:08;94799.63;;;33.24;49.05
10006;BME280;5042;42.626;23.382;2023-08-21T09:24:37;94802.41;;;33.71;43.39
10006;BME280;5042;42.626;23.382;2023-08-21T09:27:04;94777.19;;;34.00;43.87
10006;BME280;5042;42.626;23.382;2023-08-21T09:29:39;94766.56;;;34.37;43.20
10006;BME280;5042;42.626;23.382;2023-08-21T09:32:06;94792.50;;;34.35;39.25
10006;BME280;5042;42.626;23.382;2023-08-21T09:34:34;94790.84;;;34.42;42.85
10006;BME280;5042;42.626;23.382;2023-08-21T09:37:04;94793.44;;;34.39;44.28
10006;BME280;5042;42.626;23.382;2023-08-21T09:39:33;94789.63;;;34.61;42.59
10006;BME280;5042;42.626;23.382;2023-08-21T09:42:01;94791.47;;;34.90;44.07
10006;BME280;5042;42.626;23.382;2023-08-21T09:44:35;94772.66;;;34.97;41.32
10006;BME280;5042;42.626;23.382;2023-08-21T09:47:02;94790.72;;;35.35;38.17
10006;BME280;5042;42.626;23.382;2023-08-21T09:49:29;94782.16;;;35.58;38.77
10006;BME280;5042;42.626;23.382;2023-08-21T09:51:57;94785.13;;;35.53;38.41
10006;BME280;5042;42.626;23.382;2023-08-21T09:54:24;94794.28;;;34.60;36.96
10006;BME280;5042;42.626;23.382;2023-08-21T09:56:51;94790.22;;;34.46;40.34
10006;BME280;5042;42.626;23.382;2023-08-21T09:59:19;94780.75;;;34.43;39.28
10006;BME280;5042;42.626;23.382;2023-08-21T10:01:49;94771.84;;;34.55;39.22
10006;BME280;5042;42.626;23.382;2023-08-21T10:04:17;94771.50;;;34.86;38.43
10006;BME280;5042;42.626;23.382;2023-08-21T10:06:45;94741.84;;;34.42;37.33
10006;BME280;5042;42.626;23.382;2023-08-21T10:09:14;94770.81;;;34.47;38.55
10006;BME280;5042;42.626;23.382;2023-08-21T10:11:42;94752.66;;;34.60;39.81
10006;BME280;5042;42.626;23.382;2023-08-21T10:14:10;94771.41;;;34.74;37.83
10006;BME280;5042;42.626;23.382;2023-08-21T10:16:38;94763.50;;;34.81;40.58
10006;BME280;5042;42.626;23.382;2023-08-21T10:19:05;94764.03;;;34.53;40.16
10006;BME280;5042;42.626;23.382;2023-08-21T10:21:35;94760.09;;;33.91;37.20
10006;BME280;5042;42.626;23.382;2023-08-21T10:24:03;94751.97;;;33.83;39.32
10006;BME280;5042;42.626;23.382;2023-08-21T10:26:29;94757.53;;;33.48;37.30
10006;BME280;5042;42.626;23.382;2023-08-21T10:28:59;94733.84;;;33.66;41.33
10006;BME280;5042;42.626;23.382;2023-08-21T10:31:30;94744.56;;;33.92;38.86
10006;BME280;5042;42.626;23.382;2023-08-21T10:33:59;94734.97;;;33.56;37.81
10006;BME280;5042;42.626;23.382;2023-08-21T10:36:39;94724.53;;;33.20;38.95
10006;BME280;5042;42.626;23.382;2023-08-21T10:39:13;94704.13;;;33.13;39.04
10006;BME280;5042;42.626;23.382;2023-08-21T10:41:40;94733.19;;;33.60;40.33
10006;BME280;5042;42.626;23.382;2023-08-21T10:44:06;94734.44;;;33.71;40.77
10006;BME280;5042;42.626;23.382;2023-08-21T10:46:51;94733.63;;;33.79;38.04
10006;BME280;5042;42.626;23.382;2023-08-21T10:49:19;94723.59;;;33.92;43.01
10006;BME280;5042;42.626;23.382;2023-08-21T10:51:45;94729.19;;;33.96;38.07
10006;BME280;5042;42.626;23.382;2023-08-21T10:54:13;94718.03;;;33.89;42.01
10006;BME280;5042;42.626;23.382;2023-08-21T10:56:40;94711.59;;;34.23;42.38
10006;BME280;5042;42.626;23.382;2023-08-21T10:59:07;94712.66;;;34.31;38.24
10006;BME280;5042;42.626;23.382;2023-08-21T11:01:44;94710.91;;;34.47;39.39
10006;BME280;5042;42.626;23.382;2023-08-21T11:04:11;94707.00;;;34.36;38.26
10006;BME280;5042;42.626;23.382;2023-08-21T11:06:39;94707.00;;;34.36;38.17
10006;BME280;5042;42.626;23.382;2023-08-21T11:09:12;94702.72;;;34.05;37.93
10006;BME280;5042;42.626;23.382;2023-08-21T11:11:39;94706.69;;;34.16;39.10
10006;BME280;5042;42.626;23.382;2023-08-21T11:14:06;94699.78;;;34.19;37.48
10006;BME280;5042;42.626;23.382;2023-08-21T11:16:32;94708.16;;;34.05;37.31
10006;BME280;5042;42.626;23.382;2023-08-21T11:19:03;94700.13;;;33.88;40.25
10006;BME280;5042;42.626;23.382;2023-08-21T11:21:30;94701.88;;;33.63;38.26
10006;BME280;5042;42.626;23.382;2023-08-21T11:23:58;94702.34;;;33.56;38.57
10006;BME280;5042;42.626;23.382;2023-08-21T11:26:25;94690.69;;;33.55;39.35
10006;BME280;5042;42.626;23.382;2023-08-21T11:28:52;94695.09;;;33.30;37.86
10006;BME280;5042;42.626;23.382;2023-08-21T11:31:19;94696.19;;;32.82;38.76
10006;BME280;5042;42.626;23.382;2023-08-21T11:33:49;94699.25;;;32.37;37.85
10006;BME280;5042;42.626;23.382;2023-08-21T11:36:16;94695.09;;;32.40;38.53
10006;BME280;5042;42.626;23.382;2023-08-21T11:38:59;94690.63;;;32.70;37.39
10006;BME280;5042;42.626;23.382;2023-08-21T11:41:26;94677.19;;;32.65;38.27
10006;BME280;5042;42.626;23.382;2023-08-21T11:44:01;94688.19;;;32.86;37.12
10006;BME280;5042;42.626;23.382;2023-08-21T11:46:29;94677.38;;;32.77;36.50
10006;BME280;5042;42.626;23.382;2023-08-21T11:48:56;94675.75;;;32.85;38.11
10006;BME280;5042;42.626;23.382;2023-08-21T11:51:22;94673.75;;;33.20;37.95
10006;BME280;5042;42.626;23.382;2023-08-21T11:53:49;94682.09;;;33.45;35.74
10006;BME280;5042;42.626;23.382;2023-08-21T11:56:17;94679.00;;;33.55;35.52
10006;BME280;5042;42.626;23.382;2023-08-21T11:58:45;94683.16;;;33.23;35.00
10006;BME280;5042;42.626;23.382;2023-08-21T12:01:16;94671.56;;;32.96;36.04
10006;BME280;5042;42.626;23.382;2023-08-21T12:03:43;94660.91;;;32.82;35.19
10006;BME280;5042;42.626;23.382;2023-08-21T12:06:11;94652.69;;;32.91;35.22
10006;BME280;5042;42.626;23.382;2023-08-21T12:08:39;94655.53;;;33.21;38.84
10006;BME280;5042;42.626;23.382;2023-08-21T12:11:06;94661.16;;;33.45;36.66
10006;BME280;5042;42.626;23.382;2023-08-21T12:13:35;94670.72;;;33.51;35.02
10006;BME280;5042;42.626;23.382;2023-08-21T12:16:02;94670.00;;;33.33;35.72
10006;BME280;5042;42.626;23.382;2023-08-21T12:18:29;94662.53;;;33.60;36.64
10006;BME280;5042;42.626;23.382;2023-08-21T12:20:56;94665.28;;;33.51;34.38
10006;BME280;5042;42.626;23.382;2023-08-21T12:23:23;94664.38;;;33.38;34.47
10006;BME280;5042;42.626;23.382;2023-08-21T12:25:50;94663.88;;;33.07;34.92
10006;BME280;5042;42.626;23.382;2023-08-21T12:28:17;94651.09;;;33.07;35.53
10006;BME280;5042;42.626;23.382;2023-08-21T12:30:45;94658.78;;;33.44;34.40
10006;BME280;5042;42.626;23.382;2023-08-21T12:33:12;94653.41;;;33.26;34.12
10006;BME280;5042;42.626;23.382;2023-08-21T12:35:39;94655.34;;;33.17;34.80
10006;BME280;5042;42.626;23.382;2023-08-21T12:38:11;94645.63;;;33.16;35.27
10006;BME280;5042;42.626;23.382;2023-08-21T12:40:38;94645.09;;;32.84;36.37
10006;BME280;5042;42.626;23.382;2023-08-21T12:43:05;94658.19;;;32.65;36.76
10006;BME280;5042;42.626;23.382;2023-08-21T12:45:31;94646.53;;;32.73;36.31
10006;BME280;5042;42.626;23.382;2023-08-21T12:48:00;94651.78;;;32.87;36.58
10006;BME280;5042;42.626;23.382;2023-08-21T12:50:26;94654.94;;;32.98;36.14
10006;BME280;5042;42.626;23.382;2023-08-21T12:52:53;94650.66;;;32.79;35.21
10006;BME280;5042;42.626;23.382;2023-08-21T12:55:20;94641.66;;;33.05;40.14
10006;BME280;5042;42.626;23.382;2023-08-21T12:57:47;94638.75;;;33.19;35.38